Time;durP1;ratioP1;P1;durP2;ratioP2;P2;SDS_P1;SDS_P2;PMS_P1;PMS_P2;Temp;Humidity;BMP_temperature;BMP_pressure;BME280_temperature;BME280_humidity;BME280_pressure;Samples;Min_cycle;Max_cycle;Signal;HPM_P1;HPM_P2
2022/12/03 00:00:28;;;;;;;42.05;35.55;;;;;;;;;;5099376;28;20568;-88
2022/12/03 00:02:55;;;;;;;40.55;34.53;;;;;;;;;;5099921;28;20200;-89
2022/12/03 00:05:22;;;;;;;41.95;34.22;;;;;;;;;;5098940;28;20238;-88
2022/12/03 00:07:50;;;;;;;38.75;34.60;;;;;;;;;;5098214;28;20210;-88
2022/12/03 00:10:17;;;;;;;39.22;33.97;;;;;;;;;;5098872;28;20219;-87
2022/12/03 00:12:44;;;;;;;52.42;35.35;;;;;;;;;;5099888;28;20206;-88
2022/12/03 00:15:13;;;;;;;36.35;32.35;;;;;;;;;;5099569;28;20252;-87
2022/12/03 00:17:40;;;;;;;42.72;33.85;;;;;;;;;;5098259;28;20206;-88
2022/12/03 00:20:08;;;;;;;47.50;35.53;;;;;;;;;;5099223;28;20207;-87
2022/12/03 00:22:35;;;;;;;37.15;31.27;;;;;;;;;;5100275;28;20260;-88
2022/12/03 00:25:02;;;;;;;46.05;35.03;;;;;;;;;;5099232;28;20204;-88
2022/12/03 00:27:29;;;;;;;42.15;34.42;;;;;;;;;;5096710;28;20203;-88
2022/12/03 00:29:56;;;;;;;42.53;34.00;;;;;;;;;;5097394;28;20226;-88
2022/12/03 00:32:25;;;;;;;41.22;32.67;;;;;;;;;;5097844;28;20199;-88
2022/12/03 00:34:52;;;;;;;38.70;30.75;;;;;;;;;;5096623;28;20208;-88
2022/12/03 00:37:19;;;;;;;42.03;35.25;;;;;;;;;;5097651;28;20216;-88
2022/12/03 00:39:47;;;;;;;39.90;33.10;;;;;;;;;;5096526;28;20203;-88
2022/12/03 00:42:14;;;;;;;40.38;33.95;;;;;;;;;;5096626;28;20209;-88
2022/12/03 00:44:41;;;;;;;47.28;35.58;;;;;;;;;;5095989;28;20234;-88
2022/12/03 00:47:08;;;;;;;46.28;35.05;;;;;;;;;;5095060;28;20232;-88
2022/12/03 00:49:36;;;;;;;41.60;34.33;;;;;;;;;;5095524;28;20234;-88
2022/12/03 00:52:04;;;;;;;47.53;35.95;;;;;;;;;;5095640;28;20226;-88
2022/12/03 00:54:31;;;;;;;41.72;34.33;;;;;;;;;;5094649;28;20199;-88
2022/12/03 00:56:58;;;;;;;48.80;37.47;;;;;;;;;;5095554;28;20707;-88
2022/12/03 00:59:25;;;;;;;52.60;37.05;;;;;;;;;;5095998;28;20200;-88
2022/12/03 01:01:52;;;;;;;46.45;36.72;;;;;;;;;;5095829;28;20211;-88
2022/12/03 01:04:19;;;;;;;51.65;38.25;;;;;;;;;;5095146;28;20211;-88
2022/12/03 01:06:49;;;;;;;48.47;38.90;;;;;;;;;;5094869;28;20230;-88
2022/12/03 01:09:16;;;;;;;49.58;37.35;;;;;;;;;;5095265;28;20225;-88
2022/12/03 01:11:43;;;;;;;44.90;37.00;;;;;;;;;;5095415;28;20206;-88
2022/12/03 01:14:11;;;;;;;48.55;37.45;;;;;;;;;;5095069;28;20203;-88
2022/12/03 01:16:38;;;;;;;44.10;35.80;;;;;;;;;;5094951;28;20238;-88
2022/12/03 01:19:06;;;;;;;46.63;36.95;;;;;;;;;;5096074;28;20204;-88
2022/12/03 01:21:33;;;;;;;40.33;33.85;;;;;;;;;;5095401;28;20210;-88
2022/12/03 01:24:02;;;;;;;39.60;35.13;;;;;;;;;;5095093;28;20214;-88
2022/12/03 01:26:29;;;;;;;37.65;32.40;;;;;;;;;;5094684;28;20223;-88
2022/12/03 01:28:56;;;;;;;47.55;36.65;;;;;;;;;;5094974;28;20214;-88
2022/12/03 01:34:08;;;;;;;37.42;32.35;;;;;;;;;;5094899;28;20187;-87
2022/12/03 01:36:35;;;;;;;45.42;35.33;;;;;;;;;;5094353;28;20317;-87
2022/12/03 01:39:04;;;;;;;32.95;29.63;;;;;;;;;;5095598;28;20191;-88
2022/12/03 01:41:32;;;;;;;51.97;37.08;;;;;;;;;;5095317;28;20204;-87
2022/12/03 01:43:59;;;;;;;43.22;35.97;;;;;;;;;;5094661;28;20199;-88
2022/12/03 01:46:32;;;;;;;40.78;34.67;;;;;;;;;;5095017;28;20869;-88
2022/12/03 01:48:59;;;;;;;41.58;33.78;;;;;;;;;;5094786;28;20660;-88
2022/12/03 01:51:27;;;;;;;49.30;36.22;;;;;;;;;;5095731;28;20544;-88
2022/12/03 01:53:54;;;;;;;47.97;35.08;;;;;;;;;;5094769;28;20655;-88
2022/12/03 01:56:23;;;;;;;47.45;34.15;;;;;;;;;;5094472;28;20229;-88
2022/12/03 01:58:50;;;;;;;36.63;31.00;;;;;;;;;;5095300;28;20213;-88
2022/12/03 02:01:18;;;;;;;37.40;33.22;;;;;;;;;;5095745;28;20286;-88
2022/12/03 02:03:46;;;;;;;43.65;32.20;;;;;;;;;;5095397;28;20207;-88
2022/12/03 02:06:15;;;;;;;33.95;30.17;;;;;;;;;;5095541;28;20223;-87
2022/12/03 02:08:42;;;;;;;46.53;32.60;;;;;;;;;;5094819;28;20667;-88
2022/12/03 02:11:12;;;;;;;41.30;32.10;;;;;;;;;;5095806;28;20227;-87
2022/12/03 02:13:40;;;;;;;37.30;30.83;;;;;;;;;;5095296;28;20206;-87
2022/12/03 02:16:08;;;;;;;36.25;31.35;;;;;;;;;;5095564;28;20222;-87
2022/12/03 02:18:35;;;;;;;33.65;28.90;;;;;;;;;;5095827;28;20206;-87
2022/12/03 02:21:05;;;;;;;35.30;28.10;;;;;;;;;;5095711;28;20198;-87
2022/12/03 02:23:35;;;;;;;32.50;29.02;;;;;;;;;;5095204;28;20569;-87
2022/12/03 02:26:04;;;;;;;33.17;28.17;;;;;;;;;;5094540;28;20229;-87
2022/12/03 02:28:31;;;;;;;33.10;29.65;;;;;;;;;;5094563;28;20204;-87
2022/12/03 02:30:58;;;;;;;34.38;30.88;;;;;;;;;;5095182;28;20644;-87
2022/12/03 02:33:25;;;;;;;32.85;29.25;;;;;;;;;;5094762;28;20207;-87
2022/12/03 02:35:53;;;;;;;30.90;27.77;;;;;;;;;;5094712;28;20225;-87
2022/12/03 02:38:21;;;;;;;33.63;29.75;;;;;;;;;;5094006;28;20209;-88
2022/12/03 02:40:50;;;;;;;33.60;30.20;;;;;;;;;;5094277;28;20230;-87
2022/12/03 02:43:19;;;;;;;35.33;31.50;;;;;;;;;;5094019;28;20199;-87
2022/12/03 02:45:47;;;;;;;31.25;28.05;;;;;;;;;;5095454;28;20261;-87
2022/12/03 02:48:17;;;;;;;31.60;28.65;;;;;;;;;;5098694;28;20292;-87
2022/12/03 02:50:45;;;;;;;33.15;29.83;;;;;;;;;;5098531;28;20302;-88
2022/12/03 02:53:14;;;;;;;34.00;30.50;;;;;;;;;;5097936;28;20211;-88
2022/12/03 02:55:41;;;;;;;35.35;31.63;;;;;;;;;;5097512;28;20223;-88
2022/12/03 02:58:08;;;;;;;34.55;30.98;;;;;;;;;;5098160;28;20192;-88
2022/12/03 03:00:37;;;;;;;34.42;29.95;;;;;;;;;;5098218;28;20195;-87
2022/12/03 03:03:06;;;;;;;36.08;31.77;;;;;;;;;;5097707;28;20297;-88
2022/12/03 03:05:34;;;;;;;33.78;30.30;;;;;;;;;;5099339;28;20232;-88
2022/12/03 03:08:02;;;;;;;36.65;33.17;;;;;;;;;;5091054;28;20558;-88
2022/12/03 03:10:29;;;;;;;32.47;29.08;;;;;;;;;;5078799;28;20228;-88
2022/12/03 03:12:57;;;;;;;31.95;28.63;;;;;;;;;;5079117;28;20604;-88
2022/12/03 03:15:26;;;;;;;33.17;29.55;;;;;;;;;;5080179;28;20311;-87
2022/12/03 03:17:54;;;;;;;32.65;29.58;;;;;;;;;;5078107;28;20208;-88
2022/12/03 03:20:21;;;;;;;36.47;31.63;;;;;;;;;;5078198;28;20635;-88
2022/12/03 03:22:48;;;;;;;33.50;29.90;;;;;;;;;;5078334;28;20722;-88
2022/12/03 03:25:19;;;;;;;34.88;31.15;;;;;;;;;;5077055;28;20220;-88
2022/12/03 03:27:47;;;;;;;29.70;27.15;;;;;;;;;;5077034;28;20634;-88
2022/12/03 03:30:15;;;;;;;36.35;32.55;;;;;;;;;;5076811;28;20689;-88
2022/12/03 03:32:43;;;;;;;34.97;31.25;;;;;;;;;;5077575;28;20219;-88
2022/12/03 03:35:13;;;;;;;35.42;31.58;;;;;;;;;;5076240;28;20719;-88
2022/12/03 03:37:40;;;;;;;33.63;30.02;;;;;;;;;;5077455;28;20216;-87
2022/12/03 03:40:09;;;;;;;34.20;30.88;;;;;;;;;;5076604;28;20706;-87
2022/12/03 03:42:36;;;;;;;35.22;31.48;;;;;;;;;;5076393;28;20649;-88
2022/12/03 03:45:04;;;;;;;36.53;32.83;;;;;;;;;;5075768;28;20200;-88
2022/12/03 03:47:31;;;;;;;34.88;31.17;;;;;;;;;;5076088;28;20212;-88
2022/12/03 03:49:58;;;;;;;33.55;30.20;;;;;;;;;;5076605;28;20230;-88
2022/12/03 03:52:27;;;;;;;34.83;31.05;;;;;;;;;;5076384;28;20208;-88
2022/12/03 03:54:54;;;;;;;37.00;31.95;;;;;;;;;;5076198;28;20231;-88
2022/12/03 03:57:21;;;;;;;36.22;32.30;;;;;;;;;;5074229;28;20216;-88
2022/12/03 03:59:48;;;;;;;43.35;32.25;;;;;;;;;;5075994;28;20207;-88
2022/12/03 04:02:18;;;;;;;35.08;31.58;;;;;;;;;;5076326;28;20204;-89
2022/12/03 04:04:45;;;;;;;38.30;33.22;;;;;;;;;;5076311;28;20197;-88
2022/12/03 04:07:13;;;;;;;35.97;31.42;;;;;;;;;;5076409;28;20234;-88
2022/12/03 04:09:41;;;;;;;37.58;31.45;;;;;;;;;;5076454;28;20217;-88
2022/12/03 04:14:53;;;;;;;34.63;31.05;;;;;;;;;;5075598;28;20180;-88
2022/12/03 04:17:20;;;;;;;38.38;33.38;;;;;;;;;;5075383;28;20208;-87
2022/12/03 04:19:47;;;;;;;33.55;29.98;;;;;;;;;;5075897;28;20211;-88
2022/12/03 04:30:26;;;;;;;39.85;33.45;;;;;;;;;;5076939;28;20231;-88
2022/12/03 04:35:44;;;;;;;40.22;33.08;;;;;;;;;;5075605;28;20264;-88
2022/12/03 04:38:11;;;;;;;41.90;33.97;;;;;;;;;;5075109;28;20214;-88
2022/12/03 04:41:02;;;;;;;41.13;34.95;;;;;;;;;;5076779;28;20200;-87
2022/12/03 04:43:30;;;;;;;38.97;33.92;;;;;;;;;;5075620;28;20223;-87
2022/12/03 04:45:57;;;;;;;38.42;33.25;;;;;;;;;;5076688;28;20224;-88
2022/12/03 04:48:24;;;;;;;42.78;34.33;;;;;;;;;;5075579;28;20738;-87
2022/12/03 04:50:51;;;;;;;41.55;33.25;;;;;;;;;;5076744;28;20227;-87
2022/12/03 04:53:19;;;;;;;39.05;33.80;;;;;;;;;;5075732;28;20209;-87
2022/12/03 04:55:48;;;;;;;43.92;34.72;;;;;;;;;;5075259;28;20235;-87
2022/12/03 04:58:15;;;;;;;40.80;32.70;;;;;;;;;;5075212;28;20200;-88
2022/12/03 05:00:42;;;;;;;40.58;33.83;;;;;;;;;;5075295;28;20205;-88
2022/12/03 05:03:09;;;;;;;39.28;31.85;;;;;;;;;;5075258;28;20205;-87
2022/12/03 05:05:36;;;;;;;40.72;33.83;;;;;;;;;;5075293;28;20232;-90
2022/12/03 05:08:03;;;;;;;38.60;33.72;;;;;;;;;;5074563;28;20214;-87
2022/12/03 05:10:31;;;;;;;41.10;34.15;;;;;;;;;;5079085;28;20257;-84
2022/12/03 05:12:59;;;;;;;39.70;34.35;;;;;;;;;;5080859;28;20289;-84
2022/12/03 05:15:26;;;;;;;41.22;34.55;;;;;;;;;;5079587;28;20620;-84
2022/12/03 05:17:53;;;;;;;35.08;31.35;;;;;;;;;;5080091;28;20200;-84
2022/12/03 05:23:05;;;;;;;48.08;35.70;;;;;;;;;;5079585;28;20180;-86
2022/12/03 05:25:32;;;;;;;44.88;36.38;;;;;;;;;;5079314;28;20602;-85
2022/12/03 05:28:01;;;;;;;40.17;33.30;;;;;;;;;;5079403;28;20247;-85
2022/12/03 05:30:28;;;;;;;40.40;33.15;;;;;;;;;;5079838;28;20235;-86
2022/12/03 05:32:55;;;;;;;38.47;33.28;;;;;;;;;;5079037;28;20663;-85
2022/12/03 05:35:22;;;;;;;39.88;33.78;;;;;;;;;;5080159;28;20226;-86
2022/12/03 05:37:49;;;;;;;44.47;33.85;;;;;;;;;;5078502;28;20219;-84
2022/12/03 05:40:17;;;;;;;35.42;31.75;;;;;;;;;;5080312;28;20205;-86
2022/12/03 05:42:52;;;;;;;37.17;32.78;;;;;;;;;;5081148;28;20208;-85
2022/12/03 05:45:21;;;;;;;37.53;30.73;;;;;;;;;;5080075;28;20247;-85
2022/12/03 05:47:48;;;;;;;37.00;33.00;;;;;;;;;;5081769;28;20211;-85
2022/12/03 05:50:15;;;;;;;42.05;31.58;;;;;;;;;;5079842;28;20203;-85
2022/12/03 05:52:43;;;;;;;41.63;33.53;;;;;;;;;;5080599;28;20734;-86
2022/12/03 05:55:10;;;;;;;36.85;31.40;;;;;;;;;;5080370;28;20235;-85
2022/12/03 05:57:37;;;;;;;40.85;32.70;;;;;;;;;;5079338;28;20203;-84
2022/12/03 06:00:05;;;;;;;42.03;31.67;;;;;;;;;;5078800;28;20200;-85
2022/12/03 06:02:34;;;;;;;36.53;30.17;;;;;;;;;;5080899;28;20204;-85
2022/12/03 06:05:01;;;;;;;36.72;32.78;;;;;;;;;;5080662;28;20211;-85
2022/12/03 06:07:28;;;;;;;35.58;31.50;;;;;;;;;;5080786;28;20577;-85
2022/12/03 06:09:55;;;;;;;42.08;33.55;;;;;;;;;;5080063;28;20231;-85
2022/12/03 06:12:22;;;;;;;38.72;31.88;;;;;;;;;;5080261;28;20234;-85
2022/12/03 06:14:49;;;;;;;43.03;35.90;;;;;;;;;;5080500;28;20208;-84
2022/12/03 06:17:17;;;;;;;37.95;31.23;;;;;;;;;;5080802;28;20209;-85
2022/12/03 06:19:45;;;;;;;38.88;33.92;;;;;;;;;;5080409;28;20223;-85
2022/12/03 06:22:12;;;;;;;35.60;31.50;;;;;;;;;;5085076;28;20202;-85
2022/12/03 06:24:40;;;;;;;41.08;31.33;;;;;;;;;;5084824;28;20199;-85
2022/12/03 06:27:07;;;;;;;41.05;33.03;;;;;;;;;;5084897;28;20711;-85
2022/12/03 06:29:34;;;;;;;39.75;33.65;;;;;;;;;;5084325;28;20207;-85
2022/12/03 06:32:01;;;;;;;36.90;32.92;;;;;;;;;;5083333;28;20230;-85
2022/12/03 06:34:28;;;;;;;39.08;31.83;;;;;;;;;;5083059;28;20694;-84
2022/12/03 06:36:56;;;;;;;37.50;30.85;;;;;;;;;;5082852;28;20235;-85
2022/12/03 06:39:24;;;;;;;39.08;33.13;;;;;;;;;;5084142;28;20227;-85
2022/12/03 06:41:51;;;;;;;39.83;31.45;;;;;;;;;;5083818;28;20200;-85
2022/12/03 06:44:18;;;;;;;36.95;32.50;;;;;;;;;;5086316;28;20211;-87
2022/12/03 06:46:45;;;;;;;43.63;34.28;;;;;;;;;;5084308;28;20223;-85
2022/12/03 06:49:12;;;;;;;43.08;34.35;;;;;;;;;;5083409;28;20211;-85
2022/12/03 06:51:39;;;;;;;36.72;32.25;;;;;;;;;;5083923;28;20218;-85
2022/12/03 06:54:08;;;;;;;37.38;31.70;;;;;;;;;;5082680;28;20235;-85
2022/12/03 06:56:35;;;;;;;38.90;31.05;;;;;;;;;;5084040;28;20224;-85
2022/12/03 06:59:02;;;;;;;32.20;29.02;;;;;;;;;;5083838;28;20576;-85
2022/12/03 07:01:29;;;;;;;36.10;32.35;;;;;;;;;;5083508;28;20203;-85
2022/12/03 07:03:56;;;;;;;38.88;34.55;;;;;;;;;;5082869;28;20199;-85
2022/12/03 07:06:23;;;;;;;44.00;34.65;;;;;;;;;;5081952;28;20227;-85
2022/12/03 07:08:50;;;;;;;40.60;34.67;;;;;;;;;;5082744;28;20246;-85
2022/12/03 07:11:32;;;;;;;45.92;37.20;;;;;;;;;;5082419;28;20229;-84
2022/12/03 07:13:59;;;;;;;44.42;35.22;;;;;;;;;;5079480;28;20209;-85
2022/12/03 07:16:27;;;;;;;49.22;36.03;;;;;;;;;;5080401;28;20223;-85
2022/12/03 07:18:54;;;;;;;30.38;27.58;;;;;;;;;;5079684;28;20208;-85
2022/12/03 07:21:21;;;;;;;40.90;33.38;;;;;;;;;;5079868;28;20694;-85
2022/12/03 07:23:48;;;;;;;41.45;34.63;;;;;;;;;;5079585;28;20548;-85
2022/12/03 07:26:15;;;;;;;41.53;32.95;;;;;;;;;;5080962;28;20602;-79
2022/12/03 07:28:43;;;;;;;37.08;30.80;;;;;;;;;;5081789;28;20207;-80
2022/12/03 07:31:10;;;;;;;33.53;29.88;;;;;;;;;;5080292;28;20228;-80
2022/12/03 07:33:37;;;;;;;44.63;35.70;;;;;;;;;;5080035;28;20211;-79
2022/12/03 07:36:04;;;;;;;42.10;32.80;;;;;;;;;;5080830;28;20231;-80
2022/12/03 07:38:31;;;;;;;38.20;33.00;;;;;;;;;;5080898;28;20233;-80
2022/12/03 07:40:59;;;;;;;42.67;34.13;;;;;;;;;;5079878;28;20219;-79
2022/12/03 07:43:26;;;;;;;40.90;36.38;;;;;;;;;;5078340;28;20207;-78
2022/12/03 07:45:54;;;;;;;48.92;37.67;;;;;;;;;;5079969;28;20227;-79
2022/12/03 07:48:21;;;;;;;39.20;33.80;;;;;;;;;;5080357;28;20208;-79
2022/12/03 07:50:48;;;;;;;40.95;33.35;;;;;;;;;;5080620;28;20207;-80
2022/12/03 07:53:15;;;;;;;47.65;37.50;;;;;;;;;;5079861;28;20211;-80
2022/12/03 07:55:42;;;;;;;44.03;34.53;;;;;;;;;;5081085;28;20219;-80
2022/12/03 07:58:09;;;;;;;37.40;33.45;;;;;;;;;;5080269;28;20210;-80
2022/12/03 08:00:36;;;;;;;45.85;36.92;;;;;;;;;;5080147;28;20200;-79
2022/12/03 08:03:05;;;;;;;41.17;35.58;;;;;;;;;;5080094;28;20321;-82
2022/12/03 08:05:32;;;;;;;38.25;33.90;;;;;;;;;;5077761;28;20234;-81
2022/12/03 08:07:59;;;;;;;38.33;32.00;;;;;;;;;;5078485;28;20199;-82
2022/12/03 08:10:27;;;;;;;41.83;35.58;;;;;;;;;;5076905;28;20691;-80
2022/12/03 08:12:54;;;;;;;45.40;35.45;;;;;;;;;;5078253;28;20203;-82
2022/12/03 08:15:24;;;;;;;42.92;37.50;;;;;;;;;;5077923;28;20588;-82
2022/12/03 08:17:54;;;;;;;47.50;35.78;;;;;;;;;;5078071;28;20505;-81
2022/12/03 08:20:23;;;;;;;54.53;38.83;;;;;;;;;;5078192;28;20215;-82
2022/12/03 08:23:13;;;;;;;40.63;33.65;;;;;;;;;;5051588;28;20324;-82
2022/12/03 08:25:40;;;;;;;38.72;32.70;;;;;;;;;;5078111;28;20683;-81
2022/12/03 08:28:11;;;;;;;43.67;34.60;;;;;;;;;;5077866;28;20200;-81
2022/12/03 08:30:38;;;;;;;40.35;35.75;;;;;;;;;;5077447;28;20546;-81
2022/12/03 08:33:13;;;;;;;37.70;33.55;;;;;;;;;;5077075;28;20183;-81
2022/12/03 08:35:43;;;;;;;34.63;30.40;;;;;;;;;;5078941;28;20235;-81
2022/12/03 08:38:12;;;;;;;38.13;33.17;;;;;;;;;;5078889;28;20282;-81
2022/12/03 08:40:41;;;;;;;44.75;35.95;;;;;;;;;;5078622;28;20203;-80
2022/12/03 08:43:12;;;;;;;41.03;34.17;;;;;;;;;;5081403;28;20261;-82
2022/12/03 08:45:41;;;;;;;43.35;34.55;;;;;;;;;;5081417;28;20235;-81
2022/12/03 08:48:24;;;;;;;43.00;34.25;;;;;;;;;;5081039;28;20247;-81
2022/12/03 08:50:53;;;;;;;45.05;33.17;;;;;;;;;;5079011;28;20306;-81
2022/12/03 08:53:25;;;;;;;45.20;33.10;;;;;;;;;;5081044;28;20266;-81
2022/12/03 08:55:53;;;;;;;46.13;34.35;;;;;;;;;;5080115;28;20224;-81
2022/12/03 08:58:23;;;;;;;38.70;32.38;;;;;;;;;;5080484;28;20219;-82
2022/12/03 09:00:52;;;;;;;43.20;31.60;;;;;;;;;;5081180;28;20210;-82
2022/12/03 09:03:19;;;;;;;33.70;30.20;;;;;;;;;;5080617;28;20230;-81
2022/12/03 09:05:46;;;;;;;41.65;33.30;;;;;;;;;;5083443;28;20228;-82
2022/12/03 09:08:15;;;;;;;37.35;31.63;;;;;;;;;;5083136;28;20303;-82
2022/12/03 09:10:42;;;;;;;38.55;32.70;;;;;;;;;;5081599;28;20212;-82
2022/12/03 09:13:09;;;;;;;40.30;31.60;;;;;;;;;;5082227;28;20184;-82
2022/12/03 09:15:36;;;;;;;35.70;32.00;;;;;;;;;;5081641;28;20224;-82
2022/12/03 09:18:03;;;;;;;37.22;32.15;;;;;;;;;;5082265;28;20211;-82
2022/12/03 09:20:30;;;;;;;41.20;34.25;;;;;;;;;;5082679;28;20213;-81
2022/12/03 09:22:57;;;;;;;39.22;33.67;;;;;;;;;;5081030;28;20231;-82
2022/12/03 09:25:26;;;;;;;40.00;31.65;;;;;;;;;;5082119;28;20224;-81
2022/12/03 09:27:53;;;;;;;45.10;35.50;;;;;;;;;;5081860;28;20211;-82
2022/12/03 09:30:20;;;;;;;34.20;30.52;;;;;;;;;;5083110;28;20666;-81
2022/12/03 09:32:48;;;;;;;39.38;34.00;;;;;;;;;;5081336;28;20238;-82
2022/12/03 09:35:15;;;;;;;36.72;32.78;;;;;;;;;;5080187;28;20229;-81
2022/12/03 09:37:42;;;;;;;46.53;35.50;;;;;;;;;;5080240;28;20207;-82
2022/12/03 09:40:09;;;;;;;41.03;34.95;;;;;;;;;;5081781;28;20682;-81
2022/12/03 09:42:38;;;;;;;37.70;33.70;;;;;;;;;;5082876;28;20284;-82
2022/12/03 09:45:09;;;;;;;41.88;35.60;;;;;;;;;;5081430;28;20203;-82
2022/12/03 09:47:36;;;;;;;40.83;34.30;;;;;;;;;;5082331;28;20204;-82
2022/12/03 09:50:04;;;;;;;42.65;36.13;;;;;;;;;;5079779;28;20686;-82
2022/12/03 09:52:33;;;;;;;35.05;31.27;;;;;;;;;;5089468;28;20199;-81
2022/12/03 09:55:01;;;;;;;38.33;33.78;;;;;;;;;;5081456;28;20208;-81
2022/12/03 09:57:29;;;;;;;34.55;30.88;;;;;;;;;;5087259;28;20211;-81
2022/12/03 09:59:58;;;;;;;48.90;38.22;;;;;;;;;;5081837;28;20605;-81
2022/12/03 10:02:27;;;;;;;44.03;34.55;;;;;;;;;;5077133;28;20239;-82
2022/12/03 10:04:54;;;;;;;45.47;36.85;;;;;;;;;;5075964;28;20651;-82
2022/12/03 10:07:22;;;;;;;41.15;36.28;;;;;;;;;;5080319;28;20204;-81
2022/12/03 10:09:49;;;;;;;39.13;34.28;;;;;;;;;;5079886;28;20208;-82
2022/12/03 10:12:21;;;;;;;36.35;32.55;;;;;;;;;;5080321;28;20225;-81
2022/12/03 10:14:48;;;;;;;42.67;36.90;;;;;;;;;;5079609;28;20219;-82
2022/12/03 10:17:17;;;;;;;44.60;36.35;;;;;;;;;;5080262;28;20204;-81
2022/12/03 10:19:45;;;;;;;44.03;36.20;;;;;;;;;;5080119;28;20605;-81
2022/12/03 10:22:12;;;;;;;39.90;34.35;;;;;;;;;;5081162;28;20761;-81
2022/12/03 10:24:39;;;;;;;45.50;35.13;;;;;;;;;;5079147;28;20205;-81
2022/12/03 10:27:21;;;;;;;36.55;32.60;;;;;;;;;;5079796;28;20223;-82
2022/12/03 10:29:55;;;;;;;45.08;36.03;;;;;;;;;;5081234;28;20188;-82
2022/12/03 10:32:25;;;;;;;43.20;33.80;;;;;;;;;;5078602;28;20215;-81
2022/12/03 10:34:58;;;;;;;39.83;35.55;;;;;;;;;;5079719;28;20218;-81
2022/12/03 10:37:25;;;;;;;35.17;31.38;;;;;;;;;;5080897;28;20215;-81
2022/12/03 10:39:54;;;;;;;42.97;34.53;;;;;;;;;;5081645;28;20208;-80
2022/12/03 10:42:21;;;;;;;46.83;41.88;;;;;;;;;;5081744;28;20236;-82
2022/12/03 10:44:52;;;;;;;38.97;33.85;;;;;;;;;;5080238;28;20216;-80
2022/12/03 10:47:23;;;;;;;37.88;33.80;;;;;;;;;;5079192;28;20245;-81
2022/12/03 10:50:02;;;;;;;38.47;33.63;;;;;;;;;;5078521;28;20624;-81
2022/12/03 10:52:29;;;;;;;36.13;32.22;;;;;;;;;;5081063;28;20199;-81
2022/12/03 10:54:56;;;;;;;45.80;35.88;;;;;;;;;;5082596;28;20211;-81
2022/12/03 10:57:23;;;;;;;40.20;35.30;;;;;;;;;;5082457;28;20215;-81
2022/12/03 10:59:51;;;;;;;38.35;34.30;;;;;;;;;;5083257;28;20200;-81
2022/12/03 11:02:19;;;;;;;37.25;33.28;;;;;;;;;;5085199;28;20232;-81
2022/12/03 11:04:47;;;;;;;39.20;35.20;;;;;;;;;;5083649;28;20220;-82
2022/12/03 11:07:17;;;;;;;38.95;33.38;;;;;;;;;;5088919;28;20229;-81
2022/12/03 11:09:45;;;;;;;34.78;31.48;;;;;;;;;;5093120;28;20207;-81
2022/12/03 11:12:19;;;;;;;36.90;33.20;;;;;;;;;;5092639;28;20199;-82
2022/12/03 11:15:05;;;;;;;36.65;32.75;;;;;;;;;;5090131;28;20241;-81
2022/12/03 11:17:46;;;;;;;35.45;32.13;;;;;;;;;;5091581;28;20255;-81
2022/12/03 11:20:34;;;;;;;34.80;31.05;;;;;;;;;;5093369;28;20255;-82
2022/12/03 11:23:02;;;;;;;35.85;31.95;;;;;;;;;;5095466;28;20233;-82
2022/12/03 11:25:49;;;;;;;35.88;32.30;;;;;;;;;;5089193;28;20212;-81
2022/12/03 11:28:35;;;;;;;35.80;32.35;;;;;;;;;;5086915;28;20300;-81
2022/12/03 11:31:07;;;;;;;39.47;31.05;;;;;;;;;;5085438;28;20376;-81
2022/12/03 11:33:36;;;;;;;34.97;31.08;;;;;;;;;;5084483;28;20201;-82
2022/12/03 11:36:19;;;;;;;34.33;30.92;;;;;;;;;;5085120;28;20643;-82
2022/12/03 11:38:50;;;;;;;36.10;32.38;;;;;;;;;;5084955;28;20665;-82
2022/12/03 11:41:18;;;;;;;33.42;30.00;;;;;;;;;;5086086;28;20314;-82
2022/12/03 11:44:12;;;;;;;34.65;31.05;;;;;;;;;;5086646;28;20235;-81
2022/12/03 11:46:42;;;;;;;34.17;30.77;;;;;;;;;;5050038;28;20248;-82
2022/12/03 11:49:33;;;;;;;34.40;31.13;;;;;;;;;;5085106;28;20589;-81
2022/12/03 11:52:01;;;;;;;32.60;29.40;;;;;;;;;;5069761;28;20211;-82
2022/12/03 11:54:33;;;;;;;32.20;29.20;;;;;;;;;;5084767;28;20204;-81
2022/12/03 11:57:01;;;;;;;34.75;31.38;;;;;;;;;;5085011;28;20220;-81
2022/12/03 11:59:28;;;;;;;30.10;27.10;;;;;;;;;;5085567;28;20189;-82
2022/12/03 12:01:55;;;;;;;33.20;30.02;;;;;;;;;;5088396;28;20204;-82
2022/12/03 12:04:33;;;;;;;33.17;29.73;;;;;;;;;;5087357;28;20211;-82
2022/12/03 12:07:01;;;;;;;32.67;28.40;;;;;;;;;;5085397;28;20723;-81
2022/12/03 12:09:46;;;;;;;35.05;30.70;;;;;;;;;;5085396;28;20201;-81
2022/12/03 12:12:26;;;;;;;38.08;33.72;;;;;;;;;;5084133;28;20218;-81
2022/12/03 12:14:54;;;;;;;45.53;35.13;;;;;;;;;;5084274;28;20176;-81
2022/12/03 12:17:45;;;;;;;52.15;41.47;;;;;;;;;;5084183;28;20205;-81
2022/12/03 12:20:24;;;;;;;37.35;33.42;;;;;;;;;;5069283;28;20267;-81
2022/12/03 12:22:52;;;;;;;35.65;31.80;;;;;;;;;;5086344;28;20227;-80
2022/12/03 12:25:34;;;;;;;38.67;34.47;;;;;;;;;;5084319;28;20223;-81
2022/12/03 12:28:03;;;;;;;40.15;35.85;;;;;;;;;;5082296;28;20215;-81
2022/12/03 12:30:30;;;;;;;49.55;39.17;;;;;;;;;;5083732;28;20211;-81
2022/12/03 12:33:00;;;;;;;69.40;46.80;;;;;;;;;;5083438;28;20215;-82
2022/12/03 12:35:28;;;;;;;37.22;33.13;;;;;;;;;;5084702;28;20230;-81
2022/12/03 12:37:56;;;;;;;39.65;34.20;;;;;;;;;;5086226;28;20215;-82
2022/12/03 12:40:25;;;;;;;55.45;40.75;;;;;;;;;;5082339;28;20208;-81
2022/12/03 12:42:56;;;;;;;37.97;33.40;;;;;;;;;;5077128;28;20581;-82
2022/12/03 12:45:25;;;;;;;37.00;32.85;;;;;;;;;;5077392;28;20278;-82
2022/12/03 12:47:56;;;;;;;38.97;34.63;;;;;;;;;;5077532;28;20552;-82
2022/12/03 12:50:23;;;;;;;40.47;36.08;;;;;;;;;;5077389;28;20208;-81
2022/12/03 12:52:52;;;;;;;37.00;32.97;;;;;;;;;;5076156;28;20204;-81
2022/12/03 12:55:19;;;;;;;37.13;33.20;;;;;;;;;;5078084;28;20246;-81
2022/12/03 12:57:46;;;;;;;40.53;34.38;;;;;;;;;;5077888;28;20660;-81
2022/12/03 13:00:18;;;;;;;40.50;34.13;;;;;;;;;;5082964;28;20192;-81
2022/12/03 13:02:49;;;;;;;43.28;35.40;;;;;;;;;;5084317;28;20231;-84
2022/12/03 13:05:16;;;;;;;41.80;35.63;;;;;;;;;;5086990;28;20217;-81
2022/12/03 13:07:44;;;;;;;38.88;34.70;;;;;;;;;;5089563;28;20290;-82
2022/12/03 13:10:38;;;;;;;40.17;35.60;;;;;;;;;;5090798;28;20227;-81
2022/12/03 13:13:18;;;;;;;47.92;38.28;;;;;;;;;;5064939;28;20726;-81
2022/12/03 13:15:49;;;;;;;48.15;35.58;;;;;;;;;;5087515;28;20238;-81
2022/12/03 13:18:33;;;;;;;36.47;32.45;;;;;;;;;;5089369;28;20345;-82
2022/12/03 13:21:07;;;;;;;43.30;35.03;;;;;;;;;;5091669;28;20187;-81
2022/12/03 13:23:35;;;;;;;35.13;31.52;;;;;;;;;;5089937;28;20202;-81
2022/12/03 13:26:04;;;;;;;41.63;37.30;;;;;;;;;;5090153;28;20227;-81
2022/12/03 13:28:32;;;;;;;48.95;34.42;;;;;;;;;;5087389;28;20207;-82
2022/12/03 13:31:15;;;;;;;42.03;36.40;;;;;;;;;;5092830;28;20188;-81
2022/12/03 13:33:43;;;;;;;40.75;35.83;;;;;;;;;;5089107;28;20295;-81
2022/12/03 13:36:14;;;;;;;39.92;33.35;;;;;;;;;;5088877;28;20304;-81
2022/12/03 13:38:41;;;;;;;37.70;33.22;;;;;;;;;;5087807;28;20255;-81
2022/12/03 13:42:37;;;;;;;39.03;35.05;;;;;;;;;;5085879;28;20212;-81
2022/12/03 13:43:58;;;;;;;42.50;38.15;;;;;;;;;;5086765;28;20232;-82
2022/12/03 13:46:26;;;;;;;47.65;38.50;;;;;;;;;;5088972;28;20230;-81
2022/12/03 13:48:54;;;;;;;34.60;30.90;;;;;;;;;;5087056;28;20214;-81
2022/12/03 13:51:26;;;;;;;37.97;33.97;;;;;;;;;;5086234;28;20233;-82
2022/12/03 13:53:54;;;;;;;41.50;35.03;;;;;;;;;;5087017;28;20207;-81
2022/12/03 13:56:22;;;;;;;44.28;38.20;;;;;;;;;;5087199;28;20235;-81
2022/12/03 13:58:50;;;;;;;42.03;37.47;;;;;;;;;;5085745;28;20239;-81
2022/12/03 14:01:17;;;;;;;39.88;35.65;;;;;;;;;;5083693;28;20200;-82
2022/12/03 14:03:44;;;;;;;41.70;36.60;;;;;;;;;;5080218;28;20220;-81
2022/12/03 14:06:11;;;;;;;40.38;35.95;;;;;;;;;;5079110;28;20685;-81
2022/12/03 14:08:40;;;;;;;68.47;61.33;;;;;;;;;;5083603;28;20207;-81
2022/12/03 14:11:07;;;;;;;136.98;99.05;;;;;;;;;;5086700;28;20209;-82
2022/12/03 14:13:34;;;;;;;120.75;108.43;;;;;;;;;;5085519;28;20200;-82
2022/12/03 14:16:01;;;;;;;54.03;42.00;;;;;;;;;;5084403;28;20229;-80
2022/12/03 14:18:28;;;;;;;43.70;36.78;;;;;;;;;;5082481;28;20220;-81
2022/12/03 14:20:55;;;;;;;50.35;37.95;;;;;;;;;;5082173;28;20220;-80
2022/12/03 14:23:22;;;;;;;40.90;34.92;;;;;;;;;;5078833;28;20563;-82
2022/12/03 14:25:51;;;;;;;47.58;38.60;;;;;;;;;;5080387;28;20230;-82
2022/12/03 14:28:18;;;;;;;52.40;38.90;;;;;;;;;;5080986;28;20189;-82
2022/12/03 14:30:45;;;;;;;55.90;41.42;;;;;;;;;;5078601;28;20216;-82
2022/12/03 14:33:13;;;;;;;43.85;39.10;;;;;;;;;;5077725;28;20200;-82
2022/12/03 14:35:40;;;;;;;39.22;33.70;;;;;;;;;;5076372;28;20230;-82
2022/12/03 14:38:07;;;;;;;47.08;39.05;;;;;;;;;;5077673;28;20215;-81
2022/12/03 14:40:34;;;;;;;49.80;39.15;;;;;;;;;;5080654;28;20257;-81
2022/12/03 14:43:03;;;;;;;54.50;42.10;;;;;;;;;;5083675;28;20224;-82
2022/12/03 14:45:30;;;;;;;52.40;40.05;;;;;;;;;;5088550;28;20322;-81